createdAt,value
2022-11-28T00:01:47.578Z,4.60
2022-11-28T00:04:21.501Z,4.56
2022-11-28T00:06:55.045Z,4.63
2022-11-28T00:09:24.365Z,4.66
2022-11-28T00:11:57.843Z,4.60
2022-11-28T00:14:27.269Z,4.56
2022-11-28T00:16:56.965Z,4.65
2022-11-28T00:19:26.141Z,4.66
2022-11-28T00:21:56.586Z,4.65
2022-11-28T00:24:26.886Z,4.63
2022-11-28T00:26:55.947Z,4.66
2022-11-28T00:29:24.877Z,4.66
2022-11-28T00:31:54.273Z,4.62
2022-11-28T00:34:23.860Z,4.54
2022-11-28T00:36:53.877Z,4.57
2022-11-28T00:39:24.930Z,4.53
2022-11-28T00:41:54.492Z,4.51
2022-11-28T00:44:23.751Z,4.55
2022-11-28T00:46:53.305Z,4.56
2022-11-28T00:49:22.381Z,4.51
2022-11-28T00:51:51.828Z,4.51
2022-11-28T00:54:21.640Z,4.58
2022-11-28T00:56:52.039Z,4.62
2022-11-28T00:59:21.766Z,4.58
2022-11-28T01:01:51.503Z,4.59
2022-11-28T01:04:24.896Z,4.56
2022-11-28T01:06:57.320Z,4.58
2022-11-28T01:09:28.738Z,4.56
2022-11-28T01:11:59.213Z,4.52
2022-11-28T01:14:30.364Z,4.45
2022-11-28T01:17:00.569Z,4.52
2022-11-28T01:19:29.683Z,4.50
2022-11-28T01:21:58.772Z,4.45
2022-11-28T01:24:28.028Z,4.43
2022-11-28T01:26:59.211Z,4.41
2022-11-28T01:29:28.644Z,4.42
2022-11-28T01:31:58.093Z,4.42
2022-11-28T01:34:27.522Z,4.43
2022-11-28T01:36:57.238Z,4.41
2022-11-28T01:39:28.924Z,4.41
2022-11-28T01:42:07.220Z,4.38
2022-11-28T01:45:12.871Z,4.34
2022-11-28T01:47:43.191Z,4.28
2022-11-28T01:50:15.285Z,4.40
2022-11-28T01:52:55.725Z,4.34
2022-11-28T01:55:32.184Z,4.35
2022-11-28T01:58:02.936Z,4.39
2022-11-28T02:00:32.197Z,4.30
2022-11-28T02:03:08.260Z,4.34
2022-11-28T02:05:38.743Z,4.36
2022-11-28T02:08:09.800Z,4.33
2022-11-28T02:10:59.370Z,4.38
2022-11-28T02:13:45.280Z,4.34
2022-11-28T02:16:41.926Z,4.38
2022-11-28T02:19:53.845Z,4.35
2022-11-28T02:22:34.356Z,4.33
2022-11-28T02:25:40.248Z,4.33
2022-11-28T02:29:10.965Z,4.34
2022-11-28T02:32:14.861Z,4.30
2022-11-28T02:34:59.706Z,4.25
2022-11-28T02:37:45.517Z,4.26
2022-11-28T02:40:27.158Z,4.21
2022-11-28T02:43:13.988Z,4.27
2022-11-28T02:45:57.190Z,4.28
2022-11-28T02:48:37.977Z,4.29
2022-11-28T02:51:16.830Z,4.31
2022-11-28T02:53:51.520Z,4.23
2022-11-28T02:56:21.414Z,4.29
2022-11-28T02:58:50.455Z,4.23
2022-11-28T03:01:34.400Z,4.23
2022-11-28T03:04:29.814Z,4.25
2022-11-28T03:07:14.963Z,4.29
2022-11-28T03:10:07.186Z,4.26
2022-11-28T03:12:59.256Z,4.25
2022-11-28T03:15:41.062Z,4.20
2022-11-28T03:18:25.387Z,4.21
2022-11-28T03:21:06.894Z,4.17
2022-11-28T03:23:44.955Z,4.20
2022-11-28T03:26:22.154Z,4.23
2022-11-28T03:29:02.415Z,4.19
2022-11-28T03:31:41.931Z,4.23
2022-11-28T03:34:18.824Z,4.16
2022-11-28T03:37:01.785Z,4.20
2022-11-28T03:39:40.678Z,4.21
2022-11-28T03:42:15.130Z,4.24
2022-11-28T03:44:52.038Z,4.15
2022-11-28T03:47:22.322Z,4.15
2022-11-28T03:50:02.263Z,4.17
2022-11-28T03:52:44.812Z,4.16
2022-11-28T03:55:23.784Z,4.19
2022-11-28T03:58:01.348Z,4.12
2022-11-28T04:00:31.141Z,4.17
2022-11-28T04:03:12.777Z,4.15
2022-11-28T04:05:48.743Z,4.10
2022-11-28T04:08:25.840Z,4.07
2022-11-28T04:11:02.107Z,4.12
2022-11-28T04:13:43.079Z,4.12
2022-11-28T04:16:23.074Z,4.11
2022-11-28T04:19:02.486Z,4.10
2022-11-28T04:21:36.730Z,4.18
2022-11-28T04:24:13.891Z,4.08
2022-11-28T04:26:56.030Z,4.10
2022-11-28T04:29:32.690Z,4.17
2022-11-28T04:32:05.676Z,4.16
2022-11-28T04:34:41.395Z,4.15
2022-11-28T04:37:15.224Z,4.13
2022-11-28T04:39:53.736Z,4.12
2022-11-28T04:42:33.933Z,4.15
2022-11-28T04:45:13.071Z,4.09
2022-11-28T04:47:44.837Z,4.05
2022-11-28T04:50:14.735Z,4.07
2022-11-28T04:52:56.237Z,4.06
2022-11-28T04:55:37.267Z,4.04
2022-11-28T04:58:14.685Z,4.04
2022-11-28T05:00:47.386Z,4.06
2022-11-28T05:03:17.262Z,4.03
2022-11-28T05:05:51.677Z,4.05
2022-11-28T05:08:22.763Z,4.06
2022-11-28T05:10:57.948Z,4.03
2022-11-28T05:13:28.036Z,4.00
2022-11-28T05:16:01.513Z,4.01
2022-11-28T05:18:33.835Z,4.02
2022-11-28T05:21:03.108Z,4.00
2022-11-28T05:23:35.200Z,3.97
2022-11-28T05:26:10.025Z,3.96
2022-11-28T05:28:39.645Z,3.95
2022-11-28T05:31:11.993Z,3.95
2022-11-28T05:33:44.901Z,3.94
2022-11-28T05:36:21.058Z,3.97
2022-11-28T05:38:50.450Z,3.95
2022-11-28T05:41:26.838Z,3.99
2022-11-28T05:43:58.267Z,3.93
2022-11-28T05:46:29.085Z,3.96
2022-11-28T05:48:58.746Z,3.95
2022-11-28T05:51:28.681Z,3.92
2022-11-28T05:54:01.213Z,3.89
2022-11-28T05:56:32.237Z,3.91
2022-11-28T05:59:01.556Z,3.86
2022-11-28T06:01:32.716Z,3.84
2022-11-28T06:04:03.101Z,3.87
2022-11-28T06:06:36.430Z,3.92
2022-11-28T06:09:07.807Z,3.89
2022-11-28T06:11:39.707Z,3.93
2022-11-28T06:14:11.470Z,3.89
2022-11-28T06:16:42.825Z,3.92
2022-11-28T06:19:14.211Z,3.89
2022-11-28T06:21:44.000Z,3.90
2022-11-28T06:24:13.518Z,3.92
2022-11-28T06:26:44.084Z,4.00
2022-11-28T06:29:14.925Z,3.95
2022-11-28T06:31:44.905Z,3.91
2022-11-28T06:34:18.913Z,3.92
2022-11-28T06:36:54.207Z,3.97
2022-11-28T06:39:23.721Z,3.93
2022-11-28T06:41:55.290Z,3.97
2022-11-28T06:44:27.352Z,3.93
2022-11-28T06:46:57.306Z,3.92
2022-11-28T06:49:29.448Z,3.89
2022-11-28T06:52:00.387Z,3.93
2022-11-28T06:54:31.465Z,3.89
2022-11-28T06:57:06.875Z,3.92
2022-11-28T06:59:36.822Z,3.96
2022-11-28T07:02:08.385Z,3.94
2022-11-28T07:04:41.931Z,3.94
2022-11-28T07:07:16.302Z,3.95
2022-11-28T07:09:46.372Z,4.02
2022-11-28T07:12:25.169Z,4.00
2022-11-28T07:15:14.667Z,4.03
2022-11-28T07:17:44.313Z,4.06
2022-11-28T07:20:18.307Z,4.10
2022-11-28T07:22:52.757Z,4.12
2022-11-28T07:25:22.092Z,4.03
2022-11-28T07:27:55.907Z,4.11
2022-11-28T07:30:25.603Z,4.06
2022-11-28T07:32:56.311Z,4.06
2022-11-28T07:35:26.039Z,4.06
2022-11-28T07:38:03.043Z,4.11
2022-11-28T07:40:42.979Z,4.15
2022-11-28T07:43:17.118Z,4.10
2022-11-28T07:45:59.905Z,4.21
2022-11-28T07:48:30.738Z,4.14
2022-11-28T07:51:01.554Z,4.18
2022-11-28T07:53:31.138Z,4.21
2022-11-28T07:56:06.065Z,4.19
2022-11-28T07:58:39.649Z,4.22
2022-11-28T08:01:19.877Z,4.20
2022-11-28T08:03:51.528Z,4.26
2022-11-28T08:06:31.852Z,4.25
2022-11-28T08:09:04.127Z,4.33
2022-11-28T08:11:35.181Z,4.24
2022-11-28T08:14:09.966Z,4.23
2022-11-28T08:16:47.509Z,4.21
2022-11-28T08:19:23.088Z,4.27
2022-11-28T08:21:54.263Z,4.24
2022-11-28T08:24:24.305Z,4.30
2022-11-28T08:26:57.500Z,4.27
2022-11-28T08:29:31.387Z,4.24
2022-11-28T08:32:00.762Z,4.23
2022-11-28T08:34:36.412Z,4.28
2022-11-28T08:37:07.840Z,4.23
2022-11-28T08:39:36.857Z,4.21
2022-11-28T08:42:07.864Z,4.21
2022-11-28T08:44:38.293Z,4.29
2022-11-28T08:47:13.095Z,4.27
2022-11-28T08:49:48.020Z,4.22
2022-11-28T08:52:21.125Z,4.29
2022-11-28T08:54:54.744Z,4.28
2022-11-28T08:57:30.205Z,4.38
2022-11-28T09:00:03.033Z,4.36
2022-11-28T09:02:39.740Z,4.45
2022-11-28T09:05:11.785Z,4.45
2022-11-28T09:07:41.662Z,4.45
2022-11-28T09:10:15.884Z,4.53
2022-11-28T09:12:44.915Z,4.56
2022-11-28T09:15:15.512Z,4.53
2022-11-28T09:17:46.551Z,4.65
2022-11-28T09:20:17.171Z,4.73
2022-11-28T09:22:47.554Z,4.64
2022-11-28T09:25:17.870Z,4.69
2022-11-28T09:27:46.741Z,4.81
2022-11-28T09:30:18.384Z,4.78
2022-11-28T09:32:56.236Z,4.74
2022-11-28T09:35:28.498Z,4.77
2022-11-28T09:37:59.320Z,4.77
2022-11-28T09:40:39.499Z,4.73
2022-11-28T09:43:21.728Z,4.75
2022-11-28T09:45:56.830Z,4.77
2022-11-28T09:48:54.649Z,4.74
2022-11-28T09:51:48.227Z,4.78
2022-11-28T09:54:27.279Z,4.81
2022-11-28T09:56:58.534Z,4.82
2022-11-28T09:59:35.094Z,4.83
2022-11-28T10:02:33.090Z,4.78
2022-11-28T10:05:24.853Z,4.83
2022-11-28T10:08:16.892Z,4.77
2022-11-28T10:10:58.146Z,4.80
2022-11-28T10:14:06.168Z,4.74
2022-11-28T10:16:43.409Z,4.80
2022-11-28T10:19:52.277Z,4.77
2022-11-28T10:22:23.962Z,4.77
2022-11-28T10:25:09.730Z,4.82
2022-11-28T10:27:39.707Z,4.82
2022-11-28T10:30:21.043Z,4.80
2022-11-28T10:33:06.745Z,4.82
2022-11-28T10:35:50.523Z,4.83
2022-11-28T10:38:28.293Z,4.87
2022-11-28T10:41:09.347Z,4.96
2022-11-28T10:43:49.049Z,4.88
2022-11-28T10:46:59.837Z,4.90
2022-11-28T10:49:44.436Z,4.94
2022-11-28T10:52:25.787Z,4.91
2022-11-28T10:55:16.072Z,4.96
2022-11-28T10:58:00.709Z,5.02
2022-11-28T11:00:43.556Z,5.06
2022-11-28T11:03:17.879Z,4.99
2022-11-28T11:05:47.367Z,4.97
2022-11-28T11:08:25.099Z,5.00
2022-11-28T11:11:04.950Z,5.00
2022-11-28T11:13:57.989Z,5.01
2022-11-28T11:16:54.643Z,5.06
2022-11-28T11:19:28.664Z,5.10
2022-11-28T11:22:06.228Z,5.12
2022-11-28T11:24:37.579Z,4.98
2022-11-28T11:27:20.446Z,5.03
2022-11-28T11:29:55.670Z,5.16
2022-11-28T11:32:30.789Z,5.08
2022-11-28T11:35:01.948Z,5.11
2022-11-28T11:37:36.649Z,5.06
2022-11-28T11:40:29.596Z,5.08
2022-11-28T11:43:08.890Z,5.08
2022-11-28T11:45:40.028Z,5.04
2022-11-28T11:48:15.514Z,5.01
2022-11-28T11:51:00.049Z,5.13
2022-11-28T11:53:29.404Z,5.15
2022-11-28T11:56:08.965Z,5.14
2022-11-28T11:58:52.790Z,5.12
2022-11-28T12:01:25.261Z,5.18
2022-11-28T12:04:13.017Z,5.18
2022-11-28T12:07:00.602Z,5.22
2022-11-28T12:09:41.047Z,5.34
2022-11-28T12:12:20.829Z,5.21
2022-11-28T12:14:52.911Z,5.36
2022-11-28T12:17:50.676Z,5.37
2022-11-28T12:20:39.885Z,5.43
2022-11-28T12:23:31.254Z,5.44
2022-11-28T12:26:12.406Z,5.47
2022-11-28T12:29:02.780Z,5.57
2022-11-28T12:31:50.994Z,5.48
2022-11-28T12:34:38.534Z,5.36
2022-11-28T12:37:42.109Z,5.45
2022-11-28T12:40:31.367Z,5.38
2022-11-28T12:43:22.318Z,5.34
2022-11-28T12:46:06.862Z,5.29
2022-11-28T12:48:55.872Z,5.19
2022-11-28T12:51:44.856Z,5.13
2022-11-28T12:54:44.670Z,5.13
2022-11-28T12:57:27.392Z,5.10
2022-11-28T13:00:09.155Z,5.05
2022-11-28T13:03:11.688Z,5.10
2022-11-28T13:06:07.274Z,5.08
2022-11-28T13:09:00.729Z,5.12
2022-11-28T13:11:58.496Z,5.17
2022-11-28T13:14:46.420Z,5.12
2022-11-28T13:17:40.723Z,5.13
2022-11-28T13:20:24.882Z,5.09
2022-11-28T13:23:15.017Z,5.01
2022-11-28T13:26:02.088Z,4.97
2022-11-28T13:28:44.307Z,4.97
2022-11-28T13:31:30.635Z,4.94
2022-11-28T13:34:02.476Z,4.99
2022-11-28T13:39:54.176Z,4.96
2022-11-28T13:45:34.856Z,4.85
2022-11-28T13:49:13.715Z,4.80
2022-11-28T13:51:46.472Z,4.76
2022-11-28T13:54:54.627Z,4.73
2022-11-28T13:57:33.548Z,4.71
2022-11-28T14:00:27.873Z,4.64
2022-11-28T14:03:02.026Z,4.71
2022-11-28T14:05:50.301Z,4.75
2022-11-28T14:08:35.440Z,4.68
2022-11-28T14:11:47.320Z,4.63
2022-11-28T14:14:56.763Z,4.67
2022-11-28T14:18:39.306Z,4.60
2022-11-28T14:21:14.145Z,4.54
2022-11-28T14:24:03.411Z,4.57
2022-11-28T14:26:40.929Z,4.54
2022-11-28T14:29:29.035Z,4.50
2022-11-28T14:32:28.849Z,4.47
2022-11-28T14:35:05.698Z,4.46
2022-11-28T14:37:59.825Z,4.45
2022-11-28T14:41:12.304Z,4.51
2022-11-28T14:43:44.964Z,4.50
2022-11-28T14:46:34.827Z,4.47
2022-11-28T14:49:37.283Z,4.44
2022-11-28T14:52:39.090Z,4.47
2022-11-28T14:55:22.535Z,4.42
2022-11-28T14:58:08.223Z,4.33
2022-11-28T15:00:56.412Z,4.32
2022-11-28T15:03:42.255Z,4.34
2022-11-28T15:06:21.695Z,4.33
2022-11-28T15:09:07.925Z,4.40
2022-11-28T15:12:16.574Z,4.36
2022-11-28T15:14:57.920Z,4.40
2022-11-28T15:17:46.753Z,4.36
2022-11-28T15:20:41.689Z,4.36
2022-11-28T15:23:31.770Z,4.32
2022-11-28T15:26:05.826Z,4.32
2022-11-28T15:28:36.205Z,4.29
2022-11-28T15:31:23.609Z,4.34
2022-11-28T15:33:57.076Z,4.26
2022-11-28T15:36:32.952Z,4.21
2022-11-28T15:39:03.171Z,4.20
2022-11-28T15:41:34.396Z,4.18
2022-11-28T15:44:18.445Z,4.20
2022-11-28T15:46:58.392Z,4.14
2022-11-28T15:49:42.401Z,4.09
2022-11-28T15:52:20.125Z,4.07
2022-11-28T15:54:52.150Z,4.13
2022-11-28T15:57:29.136Z,4.04
2022-11-28T16:00:01.488Z,4.09
2022-11-28T16:02:41.173Z,4.06
2022-11-28T16:05:25.520Z,4.02
2022-11-28T16:07:57.494Z,4.05
2022-11-28T16:10:38.700Z,4.02
2022-11-28T16:13:33.847Z,4.08
2022-11-28T16:16:10.461Z,4.07
2022-11-28T16:18:50.435Z,4.07
2022-11-28T16:21:24.287Z,4.02
2022-11-28T16:24:04.690Z,4.05
2022-11-28T16:26:55.125Z,4.08
2022-11-28T16:29:47.163Z,4.03
2022-11-28T16:32:34.893Z,3.99
2022-11-28T16:35:09.454Z,3.93
2022-11-28T16:37:41.556Z,4.06
2022-11-28T16:40:23.030Z,4.03
2022-11-28T16:42:56.996Z,4.01
2022-11-28T16:45:35.926Z,4.04
2022-11-28T16:48:30.965Z,3.94
2022-11-28T16:51:40.430Z,3.91
2022-11-28T16:54:41.070Z,3.91
2022-11-28T16:57:16.719Z,3.93
2022-11-28T17:00:06.404Z,3.90
2022-11-28T17:02:46.047Z,3.92
2022-11-28T17:05:18.633Z,3.93
2022-11-28T17:07:50.959Z,3.89
2022-11-28T17:10:21.394Z,3.94
2022-11-28T17:13:05.095Z,3.88
2022-11-28T17:15:48.115Z,3.86
2022-11-28T17:18:39.221Z,3.87
2022-11-28T17:21:14.936Z,3.89
2022-11-28T17:23:46.529Z,3.91
2022-11-28T17:26:15.532Z,3.89
2022-11-28T17:28:44.951Z,3.83
2022-11-28T17:31:15.527Z,3.91
2022-11-28T17:33:47.526Z,3.90
2022-11-28T17:36:24.071Z,3.90
2022-11-28T17:39:04.844Z,3.89
2022-11-28T17:41:34.533Z,3.90
2022-11-28T17:44:40.115Z,3.86
2022-11-28T17:47:09.331Z,3.82
2022-11-28T17:49:43.115Z,3.81
2022-11-28T17:52:15.681Z,3.80
2022-11-28T17:54:58.152Z,3.79
2022-11-28T17:57:30.848Z,3.81
2022-11-28T18:00:05.833Z,3.78
2022-11-28T18:02:40.890Z,3.79
2022-11-28T18:05:10.835Z,3.73
2022-11-28T18:07:39.707Z,3.73
2022-11-28T18:10:15.851Z,3.74
2022-11-28T18:12:48.863Z,3.74
2022-11-28T18:15:19.116Z,3.70
2022-11-28T18:17:56.732Z,3.73
2022-11-28T18:20:32.731Z,3.70
2022-11-28T18:23:03.343Z,3.74
2022-11-28T18:25:35.341Z,3.68
2022-11-28T18:28:04.639Z,3.64
2022-11-28T18:30:33.563Z,3.63
2022-11-28T18:33:03.144Z,3.69
2022-11-28T18:35:32.016Z,3.69
2022-11-28T18:38:06.680Z,3.63
2022-11-28T18:40:49.592Z,3.63
2022-11-28T18:43:22.109Z,3.69
2022-11-28T18:45:52.267Z,3.72
2022-11-28T18:48:26.510Z,3.60
2022-11-28T18:50:57.771Z,3.59
2022-11-28T18:53:39.698Z,3.61
2022-11-28T18:56:13.531Z,3.75
2022-11-28T18:58:49.017Z,3.58
2022-11-28T19:01:28.669Z,3.51
2022-11-28T19:04:06.148Z,3.50
2022-11-28T19:06:43.408Z,3.46
2022-11-28T19:09:20.157Z,3.56
2022-11-28T19:11:50.794Z,3.55
2022-11-28T19:14:37.810Z,3.46
2022-11-28T19:17:10.159Z,3.41
2022-11-28T19:19:52.058Z,3.41
2022-11-28T19:22:25.807Z,3.48
2022-11-28T19:24:59.679Z,3.42
2022-11-28T19:27:31.152Z,3.37
2022-11-28T19:30:04.502Z,3.49
2022-11-28T19:32:34.094Z,3.42
2022-11-28T19:35:05.662Z,3.35
2022-11-28T19:37:35.082Z,3.36
2022-11-28T19:40:22.199Z,3.41
2022-11-28T19:42:52.676Z,3.34
2022-11-28T19:45:29.723Z,3.30
2022-11-28T19:47:58.862Z,3.30
2022-11-28T19:50:28.271Z,3.30
2022-11-28T19:53:11.589Z,3.29
2022-11-28T19:56:04.467Z,3.35
2022-11-28T19:58:38.330Z,3.36
2022-11-28T20:01:09.846Z,3.36
2022-11-28T20:03:42.464Z,3.34
2022-11-28T20:06:14.496Z,3.31
2022-11-28T20:08:44.348Z,3.28
2022-11-28T20:11:21.965Z,3.32
2022-11-28T20:13:59.253Z,3.29
2022-11-28T20:16:36.547Z,3.28
2022-11-28T20:19:10.022Z,3.34
2022-11-28T20:21:40.894Z,3.25
2022-11-28T20:24:13.780Z,3.26
2022-11-28T20:26:46.325Z,3.34
2022-11-28T20:29:20.207Z,3.29
2022-11-28T20:31:57.598Z,3.32
2022-11-28T20:34:30.865Z,3.25
2022-11-28T20:37:00.888Z,3.21
2022-11-28T20:39:33.701Z,3.25
2022-11-28T20:42:13.077Z,3.21
2022-11-28T20:47:30.216Z,3.18
2022-11-28T20:50:05.662Z,3.23
2022-11-28T20:52:35.576Z,3.28
2022-11-28T20:55:05.266Z,3.18
2022-11-28T20:57:36.548Z,3.24
2022-11-28T21:00:12.524Z,3.22
2022-11-28T21:02:41.866Z,3.26
2022-11-28T21:05:11.703Z,3.17
2022-11-28T21:07:41.261Z,3.20
2022-11-28T21:10:13.844Z,3.11
2022-11-28T21:12:42.533Z,3.07
2022-11-28T21:15:19.444Z,3.08
2022-11-28T21:17:51.248Z,3.09
2022-11-28T21:20:26.154Z,3.08
2022-11-28T21:22:56.682Z,3.02
2022-11-28T21:25:26.042Z,2.99
2022-11-28T21:27:55.649Z,3.00
2022-11-28T21:30:27.108Z,2.99
2022-11-28T21:32:58.664Z,3.04
2022-11-28T21:35:28.418Z,3.06
2022-11-28T21:38:03.367Z,3.03
2022-11-28T21:40:45.036Z,2.98
2022-11-28T21:43:14.342Z,2.99
2022-11-28T21:45:50.818Z,3.02
2022-11-28T21:48:25.426Z,2.94
2022-11-28T21:51:03.034Z,2.93
2022-11-28T21:53:36.715Z,2.98
2022-11-28T21:56:11.479Z,2.94
2022-11-28T21:58:47.667Z,2.94
2022-11-28T22:01:18.844Z,2.88
2022-11-28T22:03:50.600Z,3.01
2022-11-28T22:06:37.319Z,2.92
2022-11-28T22:09:10.056Z,2.96
2022-11-28T22:11:45.044Z,2.90
2022-11-28T22:14:16.727Z,2.87
2022-11-28T22:16:50.675Z,2.85
2022-11-28T22:19:23.735Z,2.91
2022-11-28T22:21:54.442Z,2.89
2022-11-28T22:24:26.331Z,2.89
2022-11-28T22:26:56.710Z,2.89
2022-11-28T22:29:26.952Z,2.93
2022-11-28T22:31:57.513Z,2.89
2022-11-28T22:34:38.353Z,2.85
2022-11-28T22:37:10.141Z,2.85
2022-11-28T22:39:40.404Z,2.83
2022-11-28T22:42:14.529Z,2.82
2022-11-28T22:44:50.809Z,2.92
2022-11-28T22:47:27.117Z,2.89
2022-11-28T22:50:02.409Z,2.89
2022-11-28T22:52:38.515Z,2.90
2022-11-28T22:55:13.283Z,2.85
2022-11-28T22:57:44.188Z,2.82
2022-11-28T23:00:22.377Z,2.78
2022-11-28T23:02:57.737Z,2.76
2022-11-28T23:05:31.268Z,2.76
2022-11-28T23:08:03.446Z,2.69
2022-11-28T23:10:34.987Z,2.73
2022-11-28T23:13:05.327Z,2.71
2022-11-28T23:15:37.094Z,2.71
2022-11-28T23:18:15.175Z,2.74
2022-11-28T23:20:51.499Z,2.72
2022-11-28T23:23:23.197Z,2.69
2022-11-28T23:25:52.495Z,2.82
2022-11-28T23:28:24.612Z,2.73
2022-11-28T23:30:56.118Z,2.71
2022-11-28T23:33:28.144Z,2.75
2022-11-28T23:35:57.053Z,2.69
2022-11-28T23:38:35.774Z,2.80
2022-11-28T23:41:10.818Z,2.73
2022-11-28T23:43:39.888Z,2.71
2022-11-28T23:46:12.370Z,2.63
2022-11-28T23:48:54.031Z,2.64
2022-11-28T23:51:29.659Z,2.62
2022-11-28T23:53:59.379Z,2.61
2022-11-28T23:56:32.002Z,2.60
2022-11-28T23:59:05.280Z,2.59
